»·PEaware :: N287JB KAMA-KDAL

N287JB :: KAMA-KDAL

FLIGHT INFORMATION

Flight Status: Arrived
Operator: Privately registered:
United States
More flights under this callsign
Pilot: John L. (16055)
Aircraft: Unknown
(VIPJ)
More flights by this aircraft type
Origin: KAMA Amarillo Intl
United States
Destination: KDAL Dallas Love
United States
More flights between these airports :: More routes between these airports
Route: +PNH STNLI JFRYE3
File this flight plan on PilotEdge
Remarks: EVIC / G
Altitude:
(Current/Filed)
25,000ft
Speed:
(Current/Filed)
380kts
Departed: 07-Aug-17 09:07 PM
Arrived: 07-Aug-17 10:16 PM
Distance/Time
Traveled:
281nm/1:09
Distance/Time
To Go:
Arrived

Flight Plot

Page will automatically refresh every two minutes.

Flight plan parsing failed; only flown route is shown


Map Options




Map Legend


Flown Route
Filed Route
Departure Airport
Arrival Airport
Navaid (VOR, NDB)
Fix

Horizontal Profiles

Position Reports

Time Latitude Longitude Heading Altitude Ground
Speed
07-Aug-17 20:44 35.205218 -101.732572 45 3610ft 0kts
07-Aug-17 20:45 35.205218 -101.732572 45 3610ft 0kts
07-Aug-17 20:46 35.205218 -101.732572 45 3610ft 0kts
07-Aug-17 20:47 35.205218 -101.732572 45 3610ft 0kts
07-Aug-17 20:48 35.205218 -101.732572 45 3610ft 0kts
07-Aug-17 20:49 35.205218 -101.732572 45 3610ft 0kts
07-Aug-17 20:50 35.205218 -101.732572 45 3610ft 0kts
07-Aug-17 20:51 35.205218 -101.732572 45 3610ft 0kts
07-Aug-17 20:52 35.216851 -101.708990 225 3610ft 0kts
07-Aug-17 20:53 35.216857 -101.708983 225 3610ft 0kts
07-Aug-17 20:54 35.216857 -101.708983 225 3610ft 0kts
07-Aug-17 20:55 35.216857 -101.708983 225 3610ft 0kts
07-Aug-17 20:56 35.216857 -101.708983 225 3610ft 0kts
07-Aug-17 20:57 35.216857 -101.708983 225 3610ft 0kts
07-Aug-17 20:58 35.216857 -101.708983 225 3610ft 0kts
07-Aug-17 20:59 35.216857 -101.708983 225 3610ft 0kts
07-Aug-17 21:00 35.217111 -101.709576 312 3610ft 6kts
07-Aug-17 21:01 35.217207 -101.712215 225 3610ft 13kts
07-Aug-17 21:02 35.214061 -101.716216 225 3610ft 19kts
07-Aug-17 21:03 35.209731 -101.721668 225 3610ft 25kts
07-Aug-17 21:04 35.204348 -101.728426 226 3610ft 28kts
07-Aug-17 21:05 35.203446 -101.730433 312 3610ft 0kts
07-Aug-17 21:06 35.203446 -101.730433 312 3610ft 0kts
07-Aug-17 21:07 35.203446 -101.730433 312 3610ft 0kts
07-Aug-17 21:08 35.203560 -101.730584 313 3610ft 3kts
07-Aug-17 21:09 35.205629 -101.732060 41 3610ft 13kts
07-Aug-17 21:10 35.221123 -101.713472 40 3966ft 164kts
07-Aug-17 21:11 35.259162 -101.668812 43 6030ft 231kts
07-Aug-17 21:12 35.301862 -101.618491 43 5990ft 217kts
07-Aug-17 21:13 35.345816 -101.566994 43 6013ft 241kts
07-Aug-17 21:14 35.397075 -101.507155 43 5989ft 256kts
07-Aug-17 21:15 35.448792 -101.446807 43 5989ft 256kts
07-Aug-17 21:16 35.500434 -101.386475 42 5990ft 257kts
07-Aug-17 21:17 35.551857 -101.325610 48 5983ft 258kts
07-Aug-17 21:18 35.524770 -101.256465 157 9283ft 281kts
07-Aug-17 21:19 35.461760 -101.208098 125 13528ft 281kts
07-Aug-17 21:20 35.411228 -101.127380 127 16011ft 318kts
07-Aug-17 21:21 35.355877 -101.041080 130 18865ft 328kts
07-Aug-17 21:22 35.298102 -100.951470 130 21152ft 345kts
07-Aug-17 21:23 35.237435 -100.857401 129 23240ft 361kts
07-Aug-17 21:24 35.174044 -100.759290 129 25085ft 375kts
07-Aug-17 21:25 35.107905 -100.657341 129 25306ft 398kts
07-Aug-17 21:26 35.037097 -100.548463 129 25302ft 422kts
07-Aug-17 21:27 34.962865 -100.434677 129 25234ft 437kts
07-Aug-17 21:28 34.886545 -100.318063 130 25209ft 444kts
07-Aug-17 21:29 34.809480 -100.200731 130 25209ft 447kts
07-Aug-17 21:30 34.731770 -100.082803 130 25210ft 448kts
07-Aug-17 21:31 34.654387 -99.965763 130 25193ft 449kts
07-Aug-17 21:32 34.575844 -99.849617 139 25139ft 449kts
07-Aug-17 21:33 34.496149 -99.734270 130 25193ft 448kts
07-Aug-17 21:34 34.419424 -99.616138 130 25185ft 445kts
07-Aug-17 21:35 34.352221 -99.491105 119 25138ft 430kts
07-Aug-17 21:36 34.307118 -99.386842 119 25160ft 428kts
07-Aug-17 21:37 34.251805 -99.259063 119 25154ft 431kts
07-Aug-17 21:38 34.196284 -99.131273 119 25129ft 430kts
07-Aug-17 21:39 34.149821 -99.024685 119 25129ft 431kts
07-Aug-17 21:40 34.092645 -98.898580 119 25134ft 431kts
07-Aug-17 21:41 34.027732 -98.749416 118 25129ft 440kts
07-Aug-17 21:42 33.972095 -98.620992 119 25131ft 430kts
07-Aug-17 21:43 33.925671 -98.515502 119 25131ft 430kts
07-Aug-17 21:44 33.869621 -98.388997 120 25118ft 429kts
07-Aug-17 21:45 33.805462 -98.245845 120 23464ft 415kts
07-Aug-17 21:46 33.751453 -98.125750 120 21461ft 405kts
07-Aug-17 21:47 33.706327 -98.028207 120 19777ft 396kts
07-Aug-17 21:48 33.654830 -97.913904 119 17777ft 385kts
07-Aug-17 21:49 33.604659 -97.802350 118 16018ft 375kts
07-Aug-17 21:50 33.555251 -97.694292 118 14525ft 366kts
07-Aug-17 21:51 33.507417 -97.590245 118 13154ft 333kts
07-Aug-17 21:52 33.465473 -97.498552 117 11123ft 309kts
07-Aug-17 21:53 33.448360 -97.403359 90 9101ft 278kts
07-Aug-17 21:54 33.445363 -97.316580 94 7071ft 250kts
07-Aug-17 21:55 33.441429 -97.237590 94 5071ft 229kts
07-Aug-17 21:56 33.438427 -97.161643 92 3734ft 231kts
07-Aug-17 21:57 33.435530 -97.084289 91 3046ft 232kts
07-Aug-17 21:58 33.432620 -97.007164 91 3047ft 233kts
07-Aug-17 21:59 33.429761 -96.930220 91 3020ft 231kts
07-Aug-17 22:00 33.406921 -96.869642 118 2974ft 164kts
07-Aug-17 22:01 33.384029 -96.831099 164 2997ft 155kts
07-Aug-17 22:02 33.344365 -96.853715 206 2784ft 154kts
07-Aug-17 22:03 33.306449 -96.876433 203 2475ft 152kts
07-Aug-17 22:04 33.267974 -96.897876 203 2502ft 153kts
07-Aug-17 22:05 33.229282 -96.919091 203 2502ft 153kts
07-Aug-17 22:06 33.190698 -96.940247 203 2502ft 153kts
07-Aug-17 22:07 33.152212 -96.961365 203 2958ft 153kts
07-Aug-17 22:08 33.113360 -96.982854 201 3979ft 157kts
07-Aug-17 22:09 33.075678 -97.004103 201 4806ft 149kts
07-Aug-17 22:10 33.043449 -97.022916 201 4757ft 123kts
07-Aug-17 22:11 33.017827 -97.039944 197 4614ft 102kts
07-Aug-17 22:12 33.012557 -97.040992 174 4573ft 97kts
07-Aug-17 22:13 32.996549 -97.026226 130 4222ft 108kts
07-Aug-17 22:14 32.974490 -96.988284 117 3225ft 175kts
07-Aug-17 22:15 32.936312 -96.947695 132 2559ft 193kts
07-Aug-17 22:16 32.903779 -96.912143 127 2336ft 130kts
07-Aug-17 22:17 32.881581 -96.884897 131 1450ft 110kts
07-Aug-17 22:18 32.859645 -96.859600 131 618ft 104kts
07-Aug-17 22:19 32.848249 -96.846259 137 490ft 23kts
07-Aug-17 22:20 32.848378 -96.844959 8 490ft 5kts
07-Aug-17 22:21 32.849701 -96.843807 257 490ft 8kts
07-Aug-17 22:22 32.848326 -96.842616 20 490ft 1kts
07-Aug-17 22:23 32.848379 -96.842647 326 490ft 0kts
07-Aug-17 22:24 32.848379 -96.842647 326 490ft 0kts

Navigation Log

Ident Type
Flight plan parsing failed, navigation log unavailable